sensor_id;sensor_type;location;lat;lon;timestamp;pressure;altitude;pressure_sealevel;temperature;humidity
76201;BME280;64981;52.930;9.266;2023-05-07T00:01:56;101744.28;;;9.38;75.72
76201;BME280;64981;52.930;9.266;2023-05-07T00:04:21;101746.28;;;9.45;75.63
76201;BME280;64981;52.930;9.266;2023-05-07T00:06:47;101740.69;;;9.39;75.58
76201;BME280;64981;52.930;9.266;2023-05-07T00:09:12;101738.19;;;9.16;76.36
76201;BME280;64981;52.930;9.266;2023-05-07T00:11:38;101742.09;;;9.22;76.58
76201;BME280;64981;52.930;9.266;2023-05-07T00:14:03;101741.84;;;9.25;76.27
76201;BME280;64981;52.930;9.266;2023-05-07T00:16:29;101734.72;;;9.16;76.26
76201;BME280;64981;52.930;9.266;2023-05-07T00:18:55;101731.56;;;9.22;76.08
76201;BME280;64981;52.930;9.266;2023-05-07T00:21:20;101738.56;;;9.33;75.84
76201;BME280;64981;52.930;9.266;2023-05-07T00:23:47;101743.25;;;9.29;75.33
76201;BME280;64981;52.930;9.266;2023-05-07T00:26:12;101743.28;;;9.08;76.30
76201;BME280;64981;52.930;9.266;2023-05-07T00:28:38;101746.16;;;9.05;76.33
76201;BME280;64981;52.930;9.266;2023-05-07T00:31:03;101743.19;;;8.99;76.54
76201;BME280;64981;52.930;9.266;2023-05-07T00:33:29;101745.16;;;8.86;77.07
76201;BME280;64981;52.930;9.266;2023-05-07T00:35:54;101740.28;;;8.81;77.25
76201;BME280;64981;52.930;9.266;2023-05-07T00:38:20;101731.84;;;8.87;77.38
76201;BME280;64981;52.930;9.266;2023-05-07T00:40:46;101724.88;;;8.97;77.00
76201;BME280;64981;52.930;9.266;2023-05-07T00:43:11;101727.97;;;9.02;76.91
76201;BME280;64981;52.930;9.266;2023-05-07T00:45:38;101724.34;;;9.03;76.39
76201;BME280;64981;52.930;9.266;2023-05-07T00:48:05;101731.31;;;9.04;76.55
76201;BME280;64981;52.930;9.266;2023-05-07T00:50:31;101718.94;;;8.84;77.01
76201;BME280;64981;52.930;9.266;2023-05-07T00:52:58;101725.31;;;8.82;77.09
76201;BME280;64981;52.930;9.266;2023-05-07T00:55:25;101730.66;;;8.91;76.81
76201;BME280;64981;52.930;9.266;2023-05-07T00:57:51;101727.38;;;8.99;76.85
76201;BME280;64981;52.930;9.266;2023-05-07T01:00:17;101736.13;;;8.99;76.97
76201;BME280;64981;52.930;9.266;2023-05-07T01:02:43;101719.84;;;8.94;76.94
76201;BME280;64981;52.930;9.266;2023-05-07T01:05:12;101724.59;;;9.00;76.56
76201;BME280;64981;52.930;9.266;2023-05-07T01:07:40;101725.78;;;9.07;76.44
76201;BME280;64981;52.930;9.266;2023-05-07T01:10:08;101724.75;;;8.99;76.14
76201;BME280;64981;52.930;9.266;2023-05-07T01:12:37;101725.19;;;9.04;75.74
76201;BME280;64981;52.930;9.266;2023-05-07T01:15:05;101730.41;;;8.94;76.29
76201;BME280;64981;52.930;9.266;2023-05-07T01:17:35;101733.34;;;9.01;75.88
76201;BME280;64981;52.930;9.266;2023-05-07T01:20:01;101734.97;;;8.92;76.16
76201;BME280;64981;52.930;9.266;2023-05-07T01:22:30;101729.53;;;8.73;77.09
76201;BME280;64981;52.930;9.266;2023-05-07T01:24:57;101733.34;;;8.80;76.76
76201;BME280;64981;52.930;9.266;2023-05-07T01:27:25;101729.72;;;8.81;76.51
76201;BME280;64981;52.930;9.266;2023-05-07T01:29:51;101734.56;;;8.76;76.72
76201;BME280;64981;52.930;9.266;2023-05-07T01:32:24;101728.84;;;8.92;76.19
76201;BME280;64981;52.930;9.266;2023-05-07T01:34:52;101722.03;;;8.89;76.21
76201;BME280;64981;52.930;9.266;2023-05-07T01:37:20;101734.25;;;8.90;75.98
76201;BME280;64981;52.930;9.266;2023-05-07T01:39:48;101723.13;;;8.87;76.22
76201;BME280;64981;52.930;9.266;2023-05-07T01:42:13;101732.38;;;8.81;76.92
76201;BME280;64981;52.930;9.266;2023-05-07T01:44:39;101728.41;;;8.87;76.43
76201;BME280;64981;52.930;9.266;2023-05-07T01:47:06;101736.34;;;8.96;75.99
76201;BME280;64981;52.930;9.266;2023-05-07T01:49:31;101720.94;;;8.92;76.17
76201;BME280;64981;52.930;9.266;2023-05-07T01:51:58;101726.91;;;8.94;76.42
76201;BME280;64981;52.930;9.266;2023-05-07T01:54:27;101743.72;;;8.93;76.37
76201;BME280;64981;52.930;9.266;2023-05-07T01:56:54;101738.63;;;8.80;76.85
76201;BME280;64981;52.930;9.266;2023-05-07T01:59:20;101741.44;;;8.88;76.33
76201;BME280;64981;52.930;9.266;2023-05-07T02:01:45;101745.16;;;8.86;76.65
76201;BME280;64981;52.930;9.266;2023-05-07T02:04:11;101737.38;;;8.84;76.74
76201;BME280;64981;52.930;9.266;2023-05-07T02:06:37;101735.41;;;8.97;76.31
76201;BME280;64981;52.930;9.266;2023-05-07T02:09:02;101735.47;;;8.86;76.49
76201;BME280;64981;52.930;9.266;2023-05-07T02:11:28;101732.50;;;8.80;76.19
76201;BME280;64981;52.930;9.266;2023-05-07T02:13:53;101741.69;;;8.85;76.33
76201;BME280;64981;52.930;9.266;2023-05-07T02:16:19;101736.44;;;8.85;76.50
76201;BME280;64981;52.930;9.266;2023-05-07T02:18:45;101736.44;;;8.85;76.45
76201;BME280;64981;52.930;9.266;2023-05-07T02:21:10;101744.22;;;8.87;76.23
76201;BME280;64981;52.930;9.266;2023-05-07T02:23:36;101733.47;;;8.79;76.65
76201;BME280;64981;52.930;9.266;2023-05-07T02:26:01;101733.53;;;8.67;77.02
76201;BME280;64981;52.930;9.266;2023-05-07T02:28:27;101732.44;;;8.70;76.69
76201;BME280;64981;52.930;9.266;2023-05-07T02:30:53;101734.56;;;8.76;76.61
76201;BME280;64981;52.930;9.266;2023-05-07T02:33:18;101729.28;;;8.76;76.84
76201;BME280;64981;52.930;9.266;2023-05-07T02:35:44;101716.16;;;8.65;77.20
76201;BME280;64981;52.930;9.266;2023-05-07T02:38:09;101725.81;;;8.76;77.01
76201;BME280;64981;52.930;9.266;2023-05-07T02:40:36;101727.75;;;8.94;76.74
76201;BME280;64981;52.930;9.266;2023-05-07T02:43:04;101723.91;;;8.98;76.46
76201;BME280;64981;52.930;9.266;2023-05-07T02:45:32;101724.75;;;8.99;76.46
76201;BME280;64981;52.930;9.266;2023-05-07T02:47:58;101733.28;;;8.91;76.74
76201;BME280;64981;52.930;9.266;2023-05-07T02:50:23;101738.44;;;9.13;75.85
76201;BME280;64981;52.930;9.266;2023-05-07T02:52:49;101743.19;;;8.99;76.41
76201;BME280;64981;52.930;9.266;2023-05-07T02:55:15;101732.44;;;8.91;76.53
76201;BME280;64981;52.930;9.266;2023-05-07T02:57:41;101737.13;;;8.87;76.90
76201;BME280;64981;52.930;9.266;2023-05-07T03:00:11;101742.38;;;8.87;76.56
76201;BME280;64981;52.930;9.266;2023-05-07T03:02:37;101743.78;;;9.02;76.14
76201;BME280;64981;52.930;9.266;2023-05-07T03:05:07;101735.06;;;8.91;76.14
76201;BME280;64981;52.930;9.266;2023-05-07T03:07:33;101735.47;;;8.86;76.58
76201;BME280;64981;52.930;9.266;2023-05-07T03:09:59;101736.94;;;9.00;76.08
76201;BME280;64981;52.930;9.266;2023-05-07T03:12:25;101732.09;;;8.84;76.61
76201;BME280;64981;52.930;9.266;2023-05-07T03:14:50;101738.81;;;8.88;76.83
76201;BME280;64981;52.930;9.266;2023-05-07T03:17:16;101731.00;;;8.55;77.75
76201;BME280;64981;52.930;9.266;2023-05-07T03:19:41;101733.72;;;8.76;77.26
76201;BME280;64981;52.930;9.266;2023-05-07T03:22:07;101727.25;;;8.68;77.39
76201;BME280;64981;52.930;9.266;2023-05-07T03:24:33;101730.72;;;8.80;77.14
76201;BME280;64981;52.930;9.266;2023-05-07T03:26:58;101728.16;;;8.90;76.76
76201;BME280;64981;52.930;9.266;2023-05-07T03:29:24;101726.72;;;8.86;77.00
76201;BME280;64981;52.930;9.266;2023-05-07T03:31:49;101735.91;;;8.91;76.68
76201;BME280;64981;52.930;9.266;2023-05-07T03:34:15;101734.63;;;8.86;76.89
76201;BME280;64981;52.930;9.266;2023-05-07T03:36:42;101730.88;;;8.99;76.56
76201;BME280;64981;52.930;9.266;2023-05-07T03:39:08;101732.59;;;8.89;76.93
76201;BME280;64981;52.930;9.266;2023-05-07T03:41:33;101736.94;;;9.00;76.46
76201;BME280;64981;52.930;9.266;2023-05-07T03:43:59;101740.34;;;8.91;76.89
76201;BME280;64981;52.930;9.266;2023-05-07T03:46:24;101744.41;;;9.15;76.03
76201;BME280;64981;52.930;9.266;2023-05-07T03:48:51;101747.63;;;8.98;76.69
76201;BME280;64981;52.930;9.266;2023-05-07T03:51:17;101737.78;;;9.00;76.65
76201;BME280;64981;52.930;9.266;2023-05-07T03:53:43;101737.09;;;8.98;76.93
76201;BME280;64981;52.930;9.266;2023-05-07T03:56:09;101729.47;;;8.84;77.04
76201;BME280;64981;52.930;9.266;2023-05-07T03:58:34;101743.91;;;9.01;76.88
76201;BME280;64981;52.930;9.266;2023-05-07T04:01:00;101747.38;;;9.01;77.28
76201;BME280;64981;52.930;9.266;2023-05-07T04:03:26;101734.56;;;8.97;76.88
76201;BME280;64981;52.930;9.266;2023-05-07T04:05:52;101742.44;;;9.08;76.78
76201;BME280;64981;52.930;9.266;2023-05-07T04:08:17;101735.41;;;8.97;77.19
76201;BME280;64981;52.930;9.266;2023-05-07T04:10:43;101738.25;;;9.05;76.49
76201;BME280;64981;52.930;9.266;2023-05-07T04:13:08;101744.94;;;9.09;76.59
76201;BME280;64981;52.930;9.266;2023-05-07T04:15:35;101743.97;;;9.10;75.98
76201;BME280;64981;52.930;9.266;2023-05-07T04:18:01;101741.59;;;9.07;75.99
76201;BME280;64981;52.930;9.266;2023-05-07T04:20:26;101742.94;;;9.02;76.31
76201;BME280;64981;52.930;9.266;2023-05-07T04:22:52;101751.81;;;9.21;75.45
76201;BME280;64981;52.930;9.266;2023-05-07T04:25:17;101755.53;;;9.19;75.29
76201;BME280;64981;52.930;9.266;2023-05-07T04:27:43;101756.03;;;8.92;75.99
76201;BME280;64981;52.930;9.266;2023-05-07T04:30:09;101750.13;;;9.00;75.43
76201;BME280;64981;52.930;9.266;2023-05-07T04:32:34;101752.91;;;8.98;75.67
76201;BME280;64981;52.930;9.266;2023-05-07T04:35:01;101757.13;;;8.90;75.96
76201;BME280;64981;52.930;9.266;2023-05-07T04:37:27;101758.94;;;8.89;76.02
76201;BME280;64981;52.930;9.266;2023-05-07T04:39:52;101762.34;;;9.01;75.53
76201;BME280;64981;52.930;9.266;2023-05-07T04:42:18;101768.13;;;8.95;75.69
76201;BME280;64981;52.930;9.266;2023-05-07T04:44:44;101771.47;;;8.97;75.31
76201;BME280;64981;52.930;9.266;2023-05-07T04:47:12;101765.03;;;8.90;75.55
76201;BME280;64981;52.930;9.266;2023-05-07T04:49:38;101767.59;;;8.80;75.85
76201;BME280;64981;52.930;9.266;2023-05-07T04:52:04;101769.25;;;8.81;75.89
76201;BME280;64981;52.930;9.266;2023-05-07T04:54:30;101734.50;;;8.55;76.32
76201;BME280;64981;52.930;9.266;2023-05-07T04:56:55;101772.97;;;8.79;76.29
76201;BME280;64981;52.930;9.266;2023-05-07T04:59:21;101769.22;;;8.92;75.69
76201;BME280;64981;52.930;9.266;2023-05-07T05:01:47;101782.59;;;9.00;75.47
76201;BME280;64981;52.930;9.266;2023-05-07T05:04:13;101787.84;;;9.00;75.57
76201;BME280;64981;52.930;9.266;2023-05-07T05:06:39;101767.28;;;8.94;75.57
76201;BME280;64981;52.930;9.266;2023-05-07T05:09:04;101793.00;;;9.02;75.76
76201;BME280;64981;52.930;9.266;2023-05-07T05:11:31;101768.97;;;8.95;74.62
76201;BME280;64981;52.930;9.266;2023-05-07T05:13:58;101770.63;;;8.96;74.54
76201;BME280;64981;52.930;9.266;2023-05-07T05:16:24;101763.13;;;8.81;74.42
76201;BME280;64981;52.930;9.266;2023-05-07T05:18:49;101776.66;;;8.87;74.34
76201;BME280;64981;52.930;9.266;2023-05-07T05:21:17;101783.22;;;8.93;74.29
76201;BME280;64981;52.930;9.266;2023-05-07T05:23:43;101787.50;;;8.94;74.70
76201;BME280;64981;52.930;9.266;2023-05-07T05:26:08;101774.69;;;9.00;74.36
76201;BME280;64981;52.930;9.266;2023-05-07T05:28:34;101779.25;;;8.98;74.72
76201;BME280;64981;52.930;9.266;2023-05-07T05:30:59;101791.00;;;8.94;74.43
76201;BME280;64981;52.930;9.266;2023-05-07T05:33:25;101779.41;;;8.86;74.82
76201;BME280;64981;52.930;9.266;2023-05-07T05:35:50;101792.38;;;9.09;74.48
76201;BME280;64981;52.930;9.266;2023-05-07T05:38:16;101795.84;;;9.10;74.15
76201;BME280;64981;52.930;9.266;2023-05-07T05:40:42;101799.31;;;9.31;73.49
76201;BME280;64981;52.930;9.266;2023-05-07T05:43:07;101786.91;;;9.22;73.31
76201;BME280;64981;52.930;9.266;2023-05-07T05:45:33;101809.53;;;9.24;72.86
76201;BME280;64981;52.930;9.266;2023-05-07T05:48:00;101800.84;;;9.13;73.37
76201;BME280;64981;52.930;9.266;2023-05-07T05:50:25;101805.44;;;9.11;73.26
76201;BME280;64981;52.930;9.266;2023-05-07T05:52:51;101783.44;;;9.01;73.33
76201;BME280;64981;52.930;9.266;2023-05-07T05:55:16;101798.81;;;9.16;73.03
76201;BME280;64981;52.930;9.266;2023-05-07T05:57:42;101792.88;;;9.03;72.98
76201;BME280;64981;52.930;9.266;2023-05-07T06:00:08;101802.13;;;9.18;72.66
76201;BME280;64981;52.930;9.266;2023-05-07T06:02:34;101801.94;;;9.10;73.30
76201;BME280;64981;52.930;9.266;2023-05-07T06:05:00;101787.41;;;8.95;73.14
76201;BME280;64981;52.930;9.266;2023-05-07T06:07:25;101799.25;;;9.21;72.83
76201;BME280;64981;52.930;9.266;2023-05-07T06:09:51;101794.16;;;9.09;73.02
76201;BME280;64981;52.930;9.266;2023-05-07T06:12:16;101806.19;;;9.22;72.01
76201;BME280;64981;52.930;9.266;2023-05-07T06:14:43;101813.09;;;9.35;72.01
76201;BME280;64981;52.930;9.266;2023-05-07T06:17:09;101803.50;;;9.13;72.50
76201;BME280;64981;52.930;9.266;2023-05-07T06:19:35;101816.63;;;9.24;72.56
76201;BME280;64981;52.930;9.266;2023-05-07T06:22:01;101806.72;;;9.16;72.68
76201;BME280;64981;52.930;9.266;2023-05-07T06:24:28;101822.25;;;9.31;72.41
76201;BME280;64981;52.930;9.266;2023-05-07T06:26:53;101808.84;;;9.22;72.62
76201;BME280;64981;52.930;9.266;2023-05-07T06:29:19;101811.63;;;9.42;72.14
76201;BME280;64981;52.930;9.266;2023-05-07T06:31:45;101821.16;;;9.33;72.49
76201;BME280;64981;52.930;9.266;2023-05-07T06:34:10;101803.06;;;9.29;72.20
76201;BME280;64981;52.930;9.266;2023-05-07T06:36:40;101807.19;;;9.42;72.26
76201;BME280;64981;52.930;9.266;2023-05-07T06:39:06;101812.06;;;9.47;72.55
76201;BME280;64981;52.930;9.266;2023-05-07T06:41:31;101798.75;;;9.27;72.05
76201;BME280;64981;52.930;9.266;2023-05-07T06:43:57;101795.16;;;9.29;71.93
76201;BME280;64981;52.930;9.266;2023-05-07T06:46:22;101808.72;;;9.45;72.18
76201;BME280;64981;52.930;9.266;2023-05-07T06:48:48;101812.44;;;9.63;71.34
76201;BME280;64981;52.930;9.266;2023-05-07T06:51:13;101792.97;;;9.54;71.27
76201;BME280;64981;52.930;9.266;2023-05-07T06:53:39;101756.31;;;9.31;70.99
76201;BME280;64981;52.930;9.266;2023-05-07T06:56:06;101802.03;;;9.61;71.58
76201;BME280;64981;52.930;9.266;2023-05-07T06:58:32;101810.75;;;9.83;70.57
76201;BME280;64981;52.930;9.266;2023-05-07T07:00:58;101825.19;;;9.58;70.90
76201;BME280;64981;52.930;9.266;2023-05-07T07:03:24;101821.56;;;9.59;70.48
76201;BME280;64981;52.930;9.266;2023-05-07T07:05:52;101809.03;;;9.72;70.06
76201;BME280;64981;52.930;9.266;2023-05-07T07:08:18;101818.88;;;9.70;70.55
76201;BME280;64981;52.930;9.266;2023-05-07T07:10:46;101814.88;;;9.75;69.97
76201;BME280;64981;52.930;9.266;2023-05-07T07:13:12;101813.41;;;9.83;70.16
76201;BME280;64981;52.930;9.266;2023-05-07T07:15:38;101809.16;;;9.70;70.21
76201;BME280;64981;52.930;9.266;2023-05-07T07:18:04;101823.75;;;9.95;69.62
76201;BME280;64981;52.930;9.266;2023-05-07T07:20:29;101821.00;;;10.06;69.23
76201;BME280;64981;52.930;9.266;2023-05-07T07:22:55;101819.66;;;10.12;69.26
76201;BME280;64981;52.930;9.266;2023-05-07T07:25:21;101826.06;;;10.19;69.85
76201;BME280;64981;52.930;9.266;2023-05-07T07:27:46;101821.84;;;10.27;69.00
76201;BME280;64981;52.930;9.266;2023-05-07T07:30:12;101829.75;;;10.27;69.34
76201;BME280;64981;52.930;9.266;2023-05-07T07:32:37;101835.56;;;10.31;68.31
76201;BME280;64981;52.930;9.266;2023-05-07T07:35:03;101826.53;;;10.24;68.65
76201;BME280;64981;52.930;9.266;2023-05-07T07:37:29;101823.81;;;10.14;68.75
76201;BME280;64981;52.930;9.266;2023-05-07T07:39:55;101825.47;;;10.15;68.48
76201;BME280;64981;52.930;9.266;2023-05-07T07:42:21;101832.66;;;10.24;68.83
76201;BME280;64981;52.930;9.266;2023-05-07T07:44:46;101833.13;;;10.18;69.69
76201;BME280;64981;52.930;9.266;2023-05-07T07:47:12;101831.56;;;10.27;68.75
76201;BME280;64981;52.930;9.266;2023-05-07T07:49:37;101831.72;;;10.35;68.67
76201;BME280;64981;52.930;9.266;2023-05-07T07:52:03;101845.88;;;10.34;68.48
76201;BME280;64981;52.930;9.266;2023-05-07T07:54:29;101842.84;;;10.39;68.66
76201;BME280;64981;52.930;9.266;2023-05-07T07:56:54;101841.59;;;10.12;68.58
76201;BME280;64981;52.930;9.266;2023-05-07T07:59:20;101831.03;;;10.12;68.44
76201;BME280;64981;52.930;9.266;2023-05-07T08:01:46;101843.91;;;10.26;68.18
76201;BME280;64981;52.930;9.266;2023-05-07T08:04:13;101844.88;;;10.25;68.66
76201;BME280;64981;52.930;9.266;2023-05-07T08:06:39;101847.97;;;10.10;69.12
76201;BME280;64981;52.930;9.266;2023-05-07T08:09:04;101839.41;;;10.17;69.63
76201;BME280;64981;52.930;9.266;2023-05-07T08:11:30;101852.84;;;10.35;68.92
76201;BME280;64981;52.930;9.266;2023-05-07T08:13:56;101846.72;;;10.35;68.56
76201;BME280;64981;52.930;9.266;2023-05-07T08:16:21;101875.19;;;10.31;68.99
76201;BME280;64981;52.930;9.266;2023-05-07T08:18:47;101834.13;;;10.17;68.89
76201;BME280;64981;52.930;9.266;2023-05-07T08:21:13;101836.63;;;10.19;69.54
76201;BME280;64981;52.930;9.266;2023-05-07T08:23:38;101869.81;;;10.42;68.75
76201;BME280;64981;52.930;9.266;2023-05-07T08:26:04;101849.78;;;10.09;69.24
76201;BME280;64981;52.930;9.266;2023-05-07T08:28:29;101838.06;;;10.23;68.78
76201;BME280;64981;52.930;9.266;2023-05-07T08:30:55;101859.94;;;10.44;68.53
76201;BME280;64981;52.930;9.266;2023-05-07T08:33:22;101862.88;;;10.41;68.56
76201;BME280;64981;52.930;9.266;2023-05-07T08:35:47;101856.97;;;10.28;69.04
76201;BME280;64981;52.930;9.266;2023-05-07T08:38:13;101861.34;;;10.39;68.98
76201;BME280;64981;52.930;9.266;2023-05-07T08:40:39;101860.09;;;10.43;69.35
76201;BME280;64981;52.930;9.266;2023-05-07T08:43:06;101862.09;;;10.60;68.55
76201;BME280;64981;52.930;9.266;2023-05-07T08:45:34;101868.97;;;10.42;68.20
76201;BME280;64981;52.930;9.266;2023-05-07T08:48:02;101866.25;;;10.62;68.04
76201;BME280;64981;52.930;9.266;2023-05-07T08:50:29;101855.69;;;10.62;68.36
76201;BME280;64981;52.930;9.266;2023-05-07T08:52:55;101857.34;;;10.54;68.33
76201;BME280;64981;52.930;9.266;2023-05-07T08:55:22;101869.31;;;10.58;68.55
76201;BME280;64981;52.930;9.266;2023-05-07T08:57:49;101872.03;;;10.77;68.09
76201;BME280;64981;52.930;9.266;2023-05-07T09:00:15;101860.19;;;10.71;67.81
76201;BME280;64981;52.930;9.266;2023-05-07T09:02:41;101839.72;;;10.64;67.82
76201;BME280;64981;52.930;9.266;2023-05-07T09:05:07;101863.00;;;10.89;68.19
76201;BME280;64981;52.930;9.266;2023-05-07T09:07:32;101849.38;;;10.84;67.70
76201;BME280;64981;52.930;9.266;2023-05-07T09:09:58;101872.19;;;10.95;67.79
76201;BME280;64981;52.930;9.266;2023-05-07T09:12:26;101876.22;;;10.99;67.03
76201;BME280;64981;52.930;9.266;2023-05-07T09:14:52;101864.94;;;11.06;67.35
76201;BME280;64981;52.930;9.266;2023-05-07T09:17:17;101863.44;;;11.13;66.82
76201;BME280;64981;52.930;9.266;2023-05-07T09:19:44;101856.63;;;11.30;66.73
76201;BME280;64981;52.930;9.266;2023-05-07T09:22:11;101865.53;;;11.48;65.57
76201;BME280;64981;52.930;9.266;2023-05-07T09:24:37;101871.09;;;11.55;65.41
76201;BME280;64981;52.930;9.266;2023-05-07T09:27:05;101867.78;;;11.62;65.92
76201;BME280;64981;52.930;9.266;2023-05-07T09:29:31;101870.09;;;11.84;64.58
76201;BME280;64981;52.930;9.266;2023-05-07T09:32:02;101867.41;;;11.94;63.68
76201;BME280;64981;52.930;9.266;2023-05-07T09:34:29;101864.47;;;11.97;64.48
76201;BME280;64981;52.930;9.266;2023-05-07T09:36:58;101865.56;;;12.14;63.44
76201;BME280;64981;52.930;9.266;2023-05-07T09:39:25;101843.31;;;12.34;62.76
76201;BME280;64981;52.930;9.266;2023-05-07T09:41:50;101857.03;;;12.47;63.42
76201;BME280;64981;52.930;9.266;2023-05-07T09:44:20;101854.94;;;12.51;63.21
76201;BME280;64981;52.930;9.266;2023-05-07T09:46:53;101864.16;;;12.74;61.96
76201;BME280;64981;52.930;9.266;2023-05-07T09:49:22;101858.97;;;12.55;62.49
76201;BME280;64981;52.930;9.266;2023-05-07T09:51:50;101867.50;;;12.49;62.83
76201;BME280;64981;52.930;9.266;2023-05-07T09:54:16;101860.66;;;12.83;61.72
76201;BME280;64981;52.930;9.266;2023-05-07T09:56:44;101852.34;;;12.68;61.85
76201;BME280;64981;52.930;9.266;2023-05-07T09:59:13;101871.56;;;12.70;62.53
76201;BME280;64981;52.930;9.266;2023-05-07T10:01:41;101870.84;;;12.78;61.42
76201;BME280;64981;52.930;9.266;2023-05-07T10:04:08;101864.59;;;12.96;61.41
76201;BME280;64981;52.930;9.266;2023-05-07T10:06:35;101844.50;;;12.94;61.41
76201;BME280;64981;52.930;9.266;2023-05-07T10:09:02;101850.91;;;13.19;60.96
76201;BME280;64981;52.930;9.266;2023-05-07T10:11:27;101842.09;;;13.01;60.28
76201;BME280;64981;52.930;9.266;2023-05-07T10:13:54;101860.16;;;13.15;60.62
76201;BME280;64981;52.930;9.266;2023-05-07T10:16:21;101865.16;;;13.18;60.16
76201;BME280;64981;52.930;9.266;2023-05-07T10:18:47;101858.41;;;13.06;60.34
76201;BME280;64981;52.930;9.266;2023-05-07T10:21:18;101864.47;;;13.16;60.07
76201;BME280;64981;52.930;9.266;2023-05-07T10:23:50;101853.00;;;12.97;61.24
76201;BME280;64981;52.930;9.266;2023-05-07T10:26:18;101850.00;;;13.28;60.57
76201;BME280;64981;52.930;9.266;2023-05-07T10:28:50;101855.91;;;13.22;60.35
76201;BME280;64981;52.930;9.266;2023-05-07T10:31:43;101857.88;;;13.37;59.95
76201;BME280;64981;52.930;9.266;2023-05-07T10:34:18;101868.03;;;13.24;60.91
76201;BME280;64981;52.930;9.266;2023-05-07T10:36:46;101856.66;;;13.14;60.21
76201;BME280;64981;52.930;9.266;2023-05-07T10:39:13;101863.63;;;13.33;59.49
76201;BME280;64981;52.930;9.266;2023-05-07T10:41:39;101861.91;;;13.06;60.19
76201;BME280;64981;52.930;9.266;2023-05-07T10:44:05;101857.88;;;13.37;60.04
76201;BME280;64981;52.930;9.266;2023-05-07T10:46:31;101870.75;;;13.50;59.39
76201;BME280;64981;52.930;9.266;2023-05-07T10:49:08;101866.72;;;13.46;59.85
76201;BME280;64981;52.930;9.266;2023-05-07T10:51:35;101864.69;;;13.40;59.89
76201;BME280;64981;52.930;9.266;2023-05-07T10:54:18;101866.78;;;13.54;60.67
76201;BME280;64981;52.930;9.266;2023-05-07T10:56:43;101860.09;;;13.68;59.34
76201;BME280;64981;52.930;9.266;2023-05-07T10:59:31;101874.88;;;13.70;59.14
76201;BME280;64981;52.930;9.266;2023-05-07T11:01:58;101869.81;;;13.85;58.94
76201;BME280;64981;52.930;9.266;2023-05-07T11:04:25;101854.97;;;13.48;59.04
76201;BME280;64981;52.930;9.266;2023-05-07T11:07:21;101860.03;;;13.60;59.86
76201;BME280;64981;52.930;9.266;2023-05-07T11:09:55;101859.19;;;13.85;58.71
76201;BME280;64981;52.930;9.266;2023-05-07T11:15:36;101867.38;;;14.09;58.99
76201;BME280;64981;52.930;9.266;2023-05-07T11:18:02;101838.22;;;14.25;58.91
76201;BME280;64981;52.930;9.266;2023-05-07T11:20:50;101853.88;;;14.36;57.93
76201;BME280;64981;52.930;9.266;2023-05-07T11:26:13;101831.00;;;14.51;57.65
76201;BME280;64981;52.930;9.266;2023-05-07T11:28:41;101827.47;;;14.85;57.24
76201;BME280;64981;52.930;9.266;2023-05-07T11:31:08;101847.25;;;14.90;56.01
76201;BME280;64981;52.930;9.266;2023-05-07T11:33:35;101848.38;;;14.80;56.17
76201;BME280;64981;52.930;9.266;2023-05-07T11:36:03;101846.72;;;14.79;56.47
76201;BME280;64981;52.930;9.266;2023-05-07T11:38:30;101846.69;;;14.71;56.49
76201;BME280;64981;52.930;9.266;2023-05-07T11:40:58;101857.41;;;15.03;56.19
76201;BME280;64981;52.930;9.266;2023-05-07T11:43:26;101866.19;;;14.95;56.54
76201;BME280;64981;52.930;9.266;2023-05-07T11:45:52;101874.84;;;14.89;56.23
76201;BME280;64981;52.930;9.266;2023-05-07T11:48:18;101876.31;;;14.92;56.30
76201;BME280;64981;52.930;9.266;2023-05-07T11:51:00;101857.72;;;14.92;56.16
76201;BME280;64981;52.930;9.266;2023-05-07T11:53:27;101863.88;;;14.92;55.80
76201;BME280;64981;52.930;9.266;2023-05-07T11:55:55;101858.34;;;14.78;55.79
76201;BME280;64981;52.930;9.266;2023-05-07T11:58:22;101850.06;;;14.89;55.77
76201;BME280;64981;52.930;9.266;2023-05-07T12:00:49;101844.38;;;14.76;55.14
76201;BME280;64981;52.930;9.266;2023-05-07T12:03:15;101862.56;;;14.96;55.25
76201;BME280;64981;52.930;9.266;2023-05-07T12:05:40;101870.47;;;14.72;56.29
76201;BME280;64981;52.930;9.266;2023-05-07T12:08:07;101856.03;;;14.83;55.27
76201;BME280;64981;52.930;9.266;2023-05-07T12:10:33;101873.00;;;14.90;55.60
76201;BME280;64981;52.930;9.266;2023-05-07T12:12:59;101824.78;;;14.93;55.46
76201;BME280;64981;52.930;9.266;2023-05-07T12:15:24;101863.28;;;15.15;55.46
76201;BME280;64981;52.930;9.266;2023-05-07T12:17:50;101864.09;;;15.23;55.23
76201;BME280;64981;52.930;9.266;2023-05-07T12:20:18;101865.13;;;15.30;55.40
76201;BME280;64981;52.930;9.266;2023-05-07T12:22:44;101862.63;;;15.13;55.84
76201;BME280;64981;52.930;9.266;2023-05-07T12:25:10;101856.97;;;15.32;55.01
76201;BME280;64981;52.930;9.266;2023-05-07T12:27:37;101853.63;;;15.30;55.05
76201;BME280;64981;52.930;9.266;2023-05-07T12:30:04;101855.28;;;15.55;54.97
76201;BME280;64981;52.930;9.266;2023-05-07T12:32:32;101851.47;;;15.57;54.50
76201;BME280;64981;52.930;9.266;2023-05-07T12:35:01;101840.16;;;15.55;54.86
76201;BME280;64981;52.930;9.266;2023-05-07T12:37:28;101858.81;;;15.47;53.89
76201;BME280;64981;52.930;9.266;2023-05-07T12:40:09;101866.28;;;15.68;54.32
76201;BME280;64981;52.930;9.266;2023-05-07T12:42:36;101868.78;;;15.53;54.52
76201;BME280;64981;52.930;9.266;2023-05-07T12:45:12;101862.94;;;15.58;54.33
76201;BME280;64981;52.930;9.266;2023-05-07T12:47:38;101855.63;;;15.68;54.17
76201;BME280;64981;52.930;9.266;2023-05-07T12:50:06;101868.09;;;15.84;54.39
76201;BME280;64981;52.930;9.266;2023-05-07T12:52:33;101874.41;;;15.91;53.42
76201;BME280;64981;52.930;9.266;2023-05-07T12:55:05;101859.72;;;16.11;53.94
76201;BME280;64981;52.930;9.266;2023-05-07T12:57:38;101863.50;;;16.33;52.27
76201;BME280;64981;52.930;9.266;2023-05-07T13:00:05;101862.69;;;16.32;52.74